Time;durP1;ratioP1;P1;durP2;ratioP2;P2;SDS_P1;SDS_P2;PMS_P1;PMS_P2;Temp;Humidity;BMP_temperature;BMP_pressure;BME280_temperature;BME280_humidity;BME280_pressure;Samples;Min_cycle;Max_cycle;Signal;HPM_P1;HPM_P2
2022/03/04 00:01:20;;;;;;;0.00;0.00;;;8.90;99.90;;;;;;4974127;28;20051;-70
2022/03/04 00:03:45;;;;;;;0.10;0.10;;;8.90;99.90;;;;;;4974152;28;20031;-71
2022/03/04 00:06:14;;;;;;;0.35;0.35;;;8.90;99.90;;;;;;4974315;28;20018;-70
2022/03/04 00:08:40;;;;;;;0.00;0.00;;;8.90;99.90;;;;;;4973309;28;20398;-70
2022/03/04 00:11:07;;;;;;;0.35;0.35;;;8.90;99.90;;;;;;4973338;28;20106;-70
2022/03/04 00:13:33;;;;;;;0.00;0.00;;;8.90;99.90;;;;;;4974047;28;20066;-70
2022/03/04 00:15:59;;;;;;;0.00;0.00;;;8.90;99.90;;;;;;5005941;28;20055;-71
2022/03/04 00:18:24;;;;;;;0.00;0.00;;;8.80;99.90;;;;;;4977834;28;20513;-70
2022/03/04 00:20:51;;;;;;;0.00;0.00;;;8.80;99.90;;;;;;4977823;28;20053;-70
2022/03/04 00:23:18;;;;;;;0.00;0.00;;;8.80;99.90;;;;;;4977399;28;20027;-71
2022/03/04 00:25:44;;;;;;;0.00;0.00;;;8.80;99.90;;;;;;4977783;28;20081;-70
2022/03/04 00:28:10;;;;;;;1.40;0.80;;;8.80;99.90;;;;;;4977234;28;20106;-70
2022/03/04 00:30:36;;;;;;;0.00;0.00;;;8.80;99.90;;;;;;4977081;28;20110;-71
2022/03/04 00:33:01;;;;;;;0.00;0.00;;;8.80;99.90;;;;;;4976961;28;20102;-71
2022/03/04 00:35:27;;;;;;;0.00;0.00;;;8.80;99.90;;;;;;4977444;28;20513;-70
2022/03/04 00:37:52;;;;;;;0.00;0.00;;;8.80;99.90;;;;;;4977484;28;20031;-70
2022/03/04 00:40:18;;;;;;;0.00;0.00;;;8.80;99.90;;;;;;4977146;28;20027;-71
2022/03/04 00:42:44;;;;;;;0.03;0.03;;;8.80;99.90;;;;;;4977622;28;20520;-70
2022/03/04 00:45:10;;;;;;;0.10;0.10;;;8.70;99.90;;;;;;4977134;28;20507;-71
2022/03/04 00:47:36;;;;;;;0.70;0.70;;;8.80;99.90;;;;;;4976574;28;20145;-71
2022/03/04 00:50:03;;;;;;;0.00;0.00;;;8.70;99.90;;;;;;4988237;28;20026;-70
2022/03/04 00:52:29;;;;;;;0.43;0.43;;;8.70;99.90;;;;;;4996398;28;20033;-70
2022/03/04 00:54:55;;;;;;;0.20;0.20;;;8.70;99.90;;;;;;4996144;28;20073;-70
2022/03/04 00:57:21;;;;;;;0.00;0.00;;;8.70;99.90;;;;;;4987179;28;20078;-70
2022/03/04 00:59:47;;;;;;;0.00;0.00;;;8.70;99.90;;;;;;4976781;28;20081;-70
2022/03/04 01:02:12;;;;;;;0.00;0.00;;;8.70;99.90;;;;;;4977444;28;20063;-70
2022/03/04 01:04:38;;;;;;;0.00;0.00;;;8.60;99.90;;;;;;4977414;28;20027;-70
2022/03/04 01:07:04;;;;;;;0.00;0.00;;;8.60;99.90;;;;;;4977568;28;20026;-71
2022/03/04 01:09:30;;;;;;;0.00;0.00;;;8.60;99.90;;;;;;4976433;28;20045;-70
2022/03/04 01:11:55;;;;;;;0.00;0.00;;;8.60;99.90;;;;;;4976116;28;20398;-71
2022/03/04 01:14:24;;;;;;;0.00;0.00;;;8.60;99.90;;;;;;4976743;28;20398;-70
2022/03/04 01:16:50;;;;;;;0.00;0.00;;;8.60;99.90;;;;;;4976440;28;20063;-70
2022/03/04 01:19:16;;;;;;;0.00;0.00;;;8.60;99.90;;;;;;4976685;28;20023;-71
2022/03/04 01:21:44;;;;;;;7.80;1.35;;;8.60;99.90;;;;;;4976165;28;20406;-71
2022/03/04 01:24:10;;;;;;;0.10;0.10;;;8.60;99.90;;;;;;4976394;28;20073;-71
2022/03/04 01:26:36;;;;;;;0.00;0.00;;;8.60;99.90;;;;;;4976730;28;20031;-70
2022/03/04 01:29:02;;;;;;;1.08;0.70;;;8.60;99.90;;;;;;4976569;28;20395;-71
2022/03/04 01:31:27;;;;;;;0.00;0.00;;;8.60;99.90;;;;;;4976540;28;20077;-70
2022/03/04 01:33:53;;;;;;;0.00;0.00;;;8.60;99.90;;;;;;4975901;28;20498;-70
2022/03/04 01:36:19;;;;;;;0.00;0.00;;;8.60;99.90;;;;;;4976566;28;20042;-71
2022/03/04 01:38:44;;;;;;;0.55;0.45;;;8.60;99.90;;;;;;4976290;28;20038;-71
2022/03/04 01:41:10;;;;;;;0.00;0.00;;;8.60;99.90;;;;;;4976509;28;20490;-70
2022/03/04 01:43:36;;;;;;;0.00;0.00;;;8.60;99.90;;;;;;4976112;28;20433;-71
2022/03/04 01:46:18;;;;;;;0.00;0.00;;;8.60;99.90;;;;;;4976088;28;20520;-71
2022/03/04 01:48:45;;;;;;;0.65;0.52;;;8.60;99.90;;;;;;4976179;28;20085;-71
2022/03/04 01:51:11;;;;;;;0.00;0.00;;;8.60;99.90;;;;;;4995403;28;20454;-70
2022/03/04 01:53:38;;;;;;;0.00;0.00;;;8.60;99.90;;;;;;4995418;28;20037;-71
2022/03/04 01:56:04;;;;;;;0.65;0.38;;;8.60;99.90;;;;;;4994885;28;20488;-70
2022/03/04 01:58:30;;;;;;;6.82;2.13;;;8.60;99.90;;;;;;4976678;28;20504;-70
2022/03/04 02:00:55;;;;;;;0.00;0.00;;;8.70;99.90;;;;;;4976016;28;20030;-71
2022/03/04 02:03:23;;;;;;;0.00;0.00;;;8.60;99.90;;;;;;4975699;28;20047;-70
2022/03/04 02:05:49;;;;;;;0.00;0.00;;;8.60;99.90;;;;;;4975912;28;20074;-70
2022/03/04 02:08:15;;;;;;;2.10;0.55;;;8.70;99.90;;;;;;4975612;28;20023;-71
2022/03/04 02:10:40;;;;;;;0.90;0.70;;;8.70;99.90;;;;;;4975886;28;20076;-70
2022/03/04 02:13:06;;;;;;;0.00;0.00;;;8.70;99.90;;;;;;4975555;28;20027;-71
2022/03/04 02:15:32;;;;;;;0.30;0.30;;;8.70;99.90;;;;;;4975538;28;20033;-71
2022/03/04 02:17:57;;;;;;;0.00;0.00;;;8.70;99.90;;;;;;4975605;28;20078;-70
2022/03/04 02:20:30;;;;;;;0.05;0.05;;;8.70;99.90;;;;;;4975663;28;20031;-70
2022/03/04 02:22:55;;;;;;;0.00;0.00;;;8.70;99.90;;;;;;4975466;28;20034;-70
2022/03/04 02:25:21;;;;;;;0.60;0.60;;;8.70;99.90;;;;;;4975316;28;20027;-70
2022/03/04 02:27:46;;;;;;;0.00;0.00;;;8.70;99.90;;;;;;4975016;28;20035;-70
2022/03/04 02:30:12;;;;;;;0.10;0.10;;;8.60;99.90;;;;;;4975446;28;20027;-70
2022/03/04 02:32:38;;;;;;;0.63;0.63;;;8.60;99.90;;;;;;4974410;28;20398;-70
2022/03/04 02:35:04;;;;;;;0.00;0.00;;;8.70;99.90;;;;;;4975303;28;20022;-70
2022/03/04 02:37:30;;;;;;;0.00;0.00;;;8.70;99.90;;;;;;4974829;28;20023;-71
2022/03/04 02:39:55;;;;;;;0.00;0.00;;;8.70;99.90;;;;;;4974842;28;20594;-71
2022/03/04 02:42:22;;;;;;;0.00;0.00;;;8.70;99.90;;;;;;4975221;28;20109;-70
2022/03/04 02:44:48;;;;;;;0.00;0.00;;;8.70;99.90;;;;;;4975080;28;20461;-70
2022/03/04 02:47:13;;;;;;;0.05;0.05;;;8.70;99.90;;;;;;4975230;28;20023;-71
2022/03/04 02:49:39;;;;;;;2.28;0.93;;;8.80;99.90;;;;;;4982739;28;20390;-70
2022/03/04 02:52:05;;;;;;;2.40;2.20;;;8.80;99.90;;;;;;4994457;28;20443;-70
2022/03/04 02:54:30;;;;;;;0.82;0.50;;;8.80;99.90;;;;;;4994356;28;20029;-71
2022/03/04 02:56:56;;;;;;;0.45;0.45;;;8.80;99.90;;;;;;4988499;28;20023;-71
2022/03/04 02:59:22;;;;;;;1.17;0.65;;;8.80;99.90;;;;;;4974934;28;20026;-70
2022/03/04 03:01:47;;;;;;;0.00;0.00;;;8.80;99.90;;;;;;4974704;28;20078;-70
2022/03/04 03:04:13;;;;;;;9.13;1.45;;;8.80;99.90;;;;;;4974993;28;20394;-70
2022/03/04 03:06:39;;;;;;;0.00;0.00;;;8.80;99.90;;;;;;4989099;28;20485;-71
2022/03/04 03:09:04;;;;;;;0.00;0.00;;;8.80;99.90;;;;;;4974466;28;20081;-70
2022/03/04 03:11:30;;;;;;;0.80;0.47;;;8.80;99.90;;;;;;4973152;28;20066;-70
2022/03/04 03:13:56;;;;;;;0.30;0.10;;;8.80;99.90;;;;;;4974761;28;20031;-70
2022/03/04 03:16:21;;;;;;;0.40;0.40;;;8.90;99.90;;;;;;4974762;28;20023;-70
2022/03/04 03:18:47;;;;;;;0.30;0.30;;;8.90;99.90;;;;;;4974427;28;20038;-70
2022/03/04 03:21:13;;;;;;;0.00;0.00;;;8.90;99.90;;;;;;4974643;28;20102;-71
2022/03/04 03:23:39;;;;;;;10.55;2.20;;;8.90;99.90;;;;;;4974355;28;20027;-71
2022/03/04 03:26:04;;;;;;;0.10;0.10;;;8.90;99.90;;;;;;4975041;28;20103;-71
2022/03/04 03:28:30;;;;;;;0.00;0.00;;;8.80;99.90;;;;;;4975000;28;20022;-70
2022/03/04 03:30:56;;;;;;;0.03;0.03;;;8.80;99.90;;;;;;4974935;28;20066;-70
2022/03/04 03:33:22;;;;;;;0.00;0.00;;;8.90;99.90;;;;;;4974208;28;20027;-71
2022/03/04 03:35:47;;;;;;;1.55;0.90;;;8.80;99.90;;;;;;4974064;28;20035;-70
2022/03/04 03:38:14;;;;;;;0.00;0.00;;;8.80;99.90;;;;;;4974316;28;20109;-71
2022/03/04 03:40:40;;;;;;;1.00;0.85;;;8.80;99.90;;;;;;4973989;28;20081;-70
2022/03/04 03:43:06;;;;;;;0.28;0.28;;;8.80;99.90;;;;;;4974312;28;20023;-70
2022/03/04 03:45:31;;;;;;;4.53;0.70;;;8.70;99.90;;;;;;4974227;28;20470;-70
2022/03/04 03:47:57;;;;;;;0.10;0.10;;;8.70;99.90;;;;;;4974413;28;20110;-70
2022/03/04 03:50:22;;;;;;;0.08;0.08;;;8.70;99.90;;;;;;4988152;28;20023;-70
2022/03/04 03:52:48;;;;;;;6.88;1.48;;;8.70;99.90;;;;;;4997208;28;20478;-70
2022/03/04 03:55:14;;;;;;;0.00;0.00;;;8.70;99.90;;;;;;4997569;28;20061;-71
2022/03/04 03:57:39;;;;;;;0.40;0.40;;;8.70;99.90;;;;;;4997443;28;20100;-70
2022/03/04 04:00:05;;;;;;;0.00;0.00;;;8.70;99.90;;;;;;4997286;28;20393;-70
2022/03/04 04:02:34;;;;;;;0.08;0.08;;;8.70;99.90;;;;;;4997305;28;20060;-71
2022/03/04 04:05:00;;;;;;;0.30;0.30;;;8.80;99.90;;;;;;4997693;28;20027;-70
2022/03/04 04:07:25;;;;;;;0.43;0.43;;;8.70;99.90;;;;;;4997536;28;20038;-71
2022/03/04 04:09:54;;;;;;;3.75;1.25;;;8.80;99.90;;;;;;4996979;28;20084;-70
2022/03/04 04:12:20;;;;;;;0.00;0.00;;;8.80;99.90;;;;;;4996810;28;20073;-71
2022/03/04 04:14:45;;;;;;;0.85;0.45;;;8.70;99.90;;;;;;4997392;28;20058;-70
2022/03/04 04:17:11;;;;;;;0.00;0.00;;;8.70;99.90;;;;;;4996417;28;20441;-70
2022/03/04 04:19:37;;;;;;;0.10;0.10;;;8.80;99.90;;;;;;4997267;28;20073;-70
2022/03/04 04:22:06;;;;;;;0.28;0.28;;;8.80;99.90;;;;;;4997098;28;20041;-70
2022/03/04 04:24:31;;;;;;;0.00;0.00;;;8.80;99.90;;;;;;4997056;28;20050;-70
2022/03/04 04:26:57;;;;;;;1.17;1.08;;;8.80;99.90;;;;;;4997370;28;20058;-70
2022/03/04 04:29:22;;;;;;;0.00;0.00;;;8.80;99.90;;;;;;4997289;28;20061;-70
2022/03/04 04:31:48;;;;;;;2.53;2.03;;;8.70;99.90;;;;;;4997251;28;20031;-70
2022/03/04 04:34:14;;;;;;;0.10;0.10;;;8.70;99.90;;;;;;4996655;28;20026;-70
2022/03/04 04:36:39;;;;;;;0.00;0.00;;;8.80;99.90;;;;;;4996623;28;20031;-70
2022/03/04 04:39:05;;;;;;;0.30;0.30;;;8.70;99.90;;;;;;4997100;28;20022;-71
2022/03/04 04:41:31;;;;;;;10.65;1.65;;;8.80;99.90;;;;;;4997129;28;20540;-70
2022/03/04 04:43:56;;;;;;;0.17;0.10;;;8.70;99.90;;;;;;4996852;28;20042;-70
2022/03/04 04:46:22;;;;;;;0.00;0.00;;;8.80;99.90;;;;;;4996966;28;20210;-70
2022/03/04 04:48:48;;;;;;;0.20;0.20;;;8.70;99.90;;;;;;4996379;28;20094;-71
2022/03/04 04:51:14;;;;;;;0.00;0.00;;;8.70;99.90;;;;;;4996015;28;20030;-71
2022/03/04 04:53:39;;;;;;;0.10;0.10;;;8.70;99.90;;;;;;4996505;28;20030;-70
2022/03/04 04:56:05;;;;;;;0.35;0.35;;;8.70;99.90;;;;;;4996714;28;20045;-70
2022/03/04 04:58:31;;;;;;;0.00;0.00;;;8.70;99.90;;;;;;4996108;28;20062;-71
2022/03/04 05:00:57;;;;;;;0.17;0.17;;;8.80;99.90;;;;;;4996552;28;20030;-70
2022/03/04 05:03:24;;;;;;;0.00;0.00;;;8.70;99.90;;;;;;4995756;28;20029;-70
2022/03/04 05:05:50;;;;;;;24.33;1.83;;;8.80;99.90;;;;;;4996522;28;20033;-70
2022/03/04 05:08:17;;;;;;;0.10;0.10;;;8.70;99.90;;;;;;4995970;28;20049;-70
2022/03/04 05:10:43;;;;;;;0.10;0.10;;;8.70;99.90;;;;;;4996280;28;20018;-70
2022/03/04 05:13:09;;;;;;;1.05;0.60;;;8.70;99.90;;;;;;4995029;28;20029;-70
2022/03/04 05:15:35;;;;;;;8.02;1.77;;;8.70;99.90;;;;;;4996341;28;20075;-70
2022/03/04 05:18:01;;;;;;;0.00;0.00;;;8.70;99.90;;;;;;4996104;28;20030;-70
2022/03/04 05:20:27;;;;;;;0.00;0.00;;;8.70;99.90;;;;;;4996375;28;20027;-70
2022/03/04 05:22:53;;;;;;;0.10;0.10;;;8.70;99.90;;;;;;4996279;28;20402;-70
2022/03/04 05:25:18;;;;;;;0.00;0.00;;;8.70;99.90;;;;;;4995239;28;20438;-70
2022/03/04 05:27:45;;;;;;;0.03;0.03;;;8.70;99.90;;;;;;4995767;28;20139;-70
2022/03/04 05:30:11;;;;;;;0.10;0.10;;;8.70;99.90;;;;;;4996098;28;20018;-70
2022/03/04 05:32:37;;;;;;;0.00;0.00;;;8.70;99.90;;;;;;4995939;28;20031;-70
2022/03/04 05:35:04;;;;;;;6.22;1.42;;;8.70;99.90;;;;;;4995172;28;20076;-71
2022/03/04 05:37:30;;;;;;;1.20;0.77;;;8.70;99.90;;;;;;4995663;28;20026;-70
2022/03/04 05:39:56;;;;;;;1.33;0.50;;;8.70;99.90;;;;;;4995898;28;20072;-71
2022/03/04 05:42:22;;;;;;;0.05;0.05;;;8.70;99.90;;;;;;4995855;28;20475;-71
2022/03/04 05:44:48;;;;;;;0.75;0.75;;;8.70;99.90;;;;;;4995556;28;20070;-70
2022/03/04 05:47:13;;;;;;;5.22;1.10;;;8.60;99.90;;;;;;4995592;28;20026;-70
2022/03/04 05:49:39;;;;;;;0.10;0.10;;;8.60;99.90;;;;;;4995679;28;20485;-71
2022/03/04 05:52:05;;;;;;;0.00;0.00;;;8.60;99.90;;;;;;4994297;28;20034;-70
2022/03/04 05:54:30;;;;;;;1.17;1.13;;;8.60;99.90;;;;;;4995715;28;20030;-70
2022/03/04 05:56:56;;;;;;;0.65;0.55;;;8.50;99.90;;;;;;4993362;28;20027;-71
2022/03/04 05:59:24;;;;;;;1.70;0.55;;;8.50;99.90;;;;;;4978171;28;20070;-70
2022/03/04 06:01:50;;;;;;;0.38;0.38;;;8.50;99.90;;;;;;4975019;28;20037;-70
2022/03/04 06:04:17;;;;;;;0.90;0.90;;;8.50;99.90;;;;;;4975470;28;20081;-70
2022/03/04 06:06:42;;;;;;;1.75;1.00;;;8.50;99.90;;;;;;4979571;28;20023;-70
2022/03/04 06:09:08;;;;;;;0.28;0.28;;;8.50;99.90;;;;;;4994714;28;20569;-70
2022/03/04 06:11:34;;;;;;;0.08;0.08;;;8.50;99.90;;;;;;4994764;28;20037;-70
2022/03/04 06:13:59;;;;;;;0.17;0.17;;;8.50;99.90;;;;;;4994155;28;20485;-70
2022/03/04 06:16:25;;;;;;;2.05;0.55;;;8.50;99.90;;;;;;4994354;28;20026;-70
2022/03/04 06:18:51;;;;;;;0.55;0.55;;;8.50;99.90;;;;;;4994542;28;20441;-71
2022/03/04 06:21:17;;;;;;;2.28;1.50;;;8.50;99.90;;;;;;4994776;28;20417;-70
2022/03/04 06:23:43;;;;;;;2.05;1.85;;;8.50;99.90;;;;;;4994534;28;20041;-70
2022/03/04 06:26:08;;;;;;;8.20;2.65;;;8.50;99.90;;;;;;4994872;28;20026;-70
2022/03/04 06:28:34;;;;;;;0.43;0.17;;;8.50;99.90;;;;;;4994530;28;20037;-70
2022/03/04 06:31:00;;;;;;;3.53;1.70;;;8.50;99.90;;;;;;4994753;28;20023;-70
2022/03/04 06:33:32;;;;;;;0.03;0.03;;;8.50;99.90;;;;;;4993936;28;20042;-70
2022/03/04 06:36:04;;;;;;;0.32;0.32;;;8.50;99.90;;;;;;4993137;28;20031;-71
2022/03/04 06:38:30;;;;;;;2.20;1.50;;;8.50;99.90;;;;;;4994078;28;20092;-70
2022/03/04 06:40:57;;;;;;;0.00;0.00;;;8.50;99.90;;;;;;4994821;28;20121;-71
2022/03/04 06:43:23;;;;;;;0.73;0.60;;;8.50;99.90;;;;;;4994165;28;20024;-71
2022/03/04 06:45:48;;;;;;;0.75;0.75;;;8.50;99.90;;;;;;4991825;28;20448;-70
2022/03/04 06:48:21;;;;;;;2.45;1.52;;;8.40;99.90;;;;;;4993004;28;20110;-70
2022/03/04 06:50:48;;;;;;;1.55;0.98;;;8.40;99.90;;;;;;4991781;28;20053;-71
2022/03/04 06:53:14;;;;;;;0.10;0.10;;;8.40;99.90;;;;;;4992972;28;20398;-71
2022/03/04 06:55:40;;;;;;;0.80;0.45;;;8.40;99.90;;;;;;4993872;28;20015;-70
2022/03/04 06:58:06;;;;;;;0.17;0.17;;;8.40;99.90;;;;;;5008066;28;20115;-70
2022/03/04 07:00:32;;;;;;;0.45;0.40;;;8.40;99.90;;;;;;4993740;28;20528;-70
2022/03/04 07:02:58;;;;;;;0.90;0.90;;;8.40;99.90;;;;;;4990665;28;20022;-71
2022/03/04 07:05:24;;;;;;;0.43;0.35;;;8.40;99.90;;;;;;4996463;28;20041;-70
2022/03/04 07:07:51;;;;;;;0.63;0.22;;;8.40;99.90;;;;;;5008849;28;20064;-71
2022/03/04 07:10:17;;;;;;;0.08;0.08;;;8.50;99.90;;;;;;4992381;28;20025;-71
2022/03/04 07:12:43;;;;;;;0.00;0.00;;;8.50;99.90;;;;;;4992330;28;20038;-70
2022/03/04 07:15:09;;;;;;;0.45;0.45;;;8.50;99.90;;;;;;4993029;28;20027;-71
2022/03/04 07:17:35;;;;;;;0.17;0.17;;;8.50;99.90;;;;;;4985897;28;20045;-71
2022/03/04 07:20:01;;;;;;;0.22;0.22;;;8.50;99.90;;;;;;4984385;28;20512;-70
2022/03/04 07:22:27;;;;;;;0.00;0.00;;;8.50;99.90;;;;;;4992545;28;20034;-70
2022/03/04 07:24:53;;;;;;;0.15;0.15;;;8.50;99.90;;;;;;4991258;28;20034;-71
2022/03/04 07:27:18;;;;;;;3.38;1.95;;;8.50;99.90;;;;;;4989851;28;20034;-71
2022/03/04 07:29:44;;;;;;;1.05;0.95;;;8.50;99.90;;;;;;4988808;28;20027;-71
2022/03/04 07:32:10;;;;;;;0.00;0.00;;;8.50;99.90;;;;;;4989407;28;20034;-71
2022/03/04 07:34:35;;;;;;;0.00;0.00;;;8.50;99.90;;;;;;4991830;28;20217;-71
2022/03/04 07:37:01;;;;;;;0.00;0.00;;;8.60;99.90;;;;;;4979820;28;20061;-71
2022/03/04 07:39:27;;;;;;;1.50;0.43;;;8.60;99.90;;;;;;4991255;28;20018;-71
2022/03/04 07:41:53;;;;;;;1.98;0.80;;;8.50;99.90;;;;;;4991190;28;20081;-71
2022/03/04 07:44:19;;;;;;;0.20;0.20;;;8.60;99.90;;;;;;4990810;28;20045;-70
2022/03/04 07:46:45;;;;;;;1.15;0.75;;;8.60;99.90;;;;;;4990376;28;20033;-70
2022/03/04 07:49:11;;;;;;;0.00;0.00;;;8.60;99.90;;;;;;4989554;28;20052;-71
2022/03/04 07:51:37;;;;;;;0.00;0.00;;;8.60;99.90;;;;;;4992196;28;20030;-71
2022/03/04 07:54:03;;;;;;;0.05;0.05;;;8.70;99.90;;;;;;4990964;28;20418;-70
2022/03/04 07:56:29;;;;;;;1.20;1.02;;;8.70;99.90;;;;;;4990765;28;20022;-71
2022/03/04 07:58:54;;;;;;;0.57;0.57;;;8.80;99.90;;;;;;4978987;28;20561;-71
2022/03/04 08:01:20;;;;;;;1.27;0.47;;;8.90;99.90;;;;;;4987617;28;20073;-71
2022/03/04 08:03:46;;;;;;;1.10;1.05;;;8.90;99.90;;;;;;4988783;28;20022;-71
2022/03/04 08:06:13;;;;;;;0.00;0.00;;;8.90;99.90;;;;;;4980300;28;20033;-71
2022/03/04 08:08:39;;;;;;;0.80;0.80;;;8.90;99.90;;;;;;5011095;28;20011;-71
2022/03/04 08:11:05;;;;;;;0.45;0.30;;;8.90;99.90;;;;;;5006411;28;20053;-71
2022/03/04 08:13:31;;;;;;;1.98;0.55;;;8.80;99.90;;;;;;4986649;28;20022;-71
2022/03/04 08:15:57;;;;;;;1.00;0.98;;;8.80;99.90;;;;;;4984063;28;20510;-71
2022/03/04 08:18:23;;;;;;;0.00;0.00;;;8.80;99.90;;;;;;4986650;28;20395;-71
2022/03/04 08:20:49;;;;;;;1.40;1.30;;;8.70;99.90;;;;;;4988296;28;20034;-71
2022/03/04 08:23:14;;;;;;;2.55;0.80;;;8.70;99.90;;;;;;4995508;28;20065;-71
2022/03/04 08:25:40;;;;;;;0.17;0.17;;;8.70;99.90;;;;;;4987436;28;20077;-71
2022/03/04 08:28:06;;;;;;;0.43;0.43;;;8.80;99.90;;;;;;4989885;28;20508;-71
2022/03/04 08:30:32;;;;;;;0.00;0.00;;;8.70;99.90;;;;;;4986335;28;20030;-71
2022/03/04 08:32:59;;;;;;;0.32;0.32;;;8.70;99.90;;;;;;4987721;28;20034;-71
2022/03/04 08:35:25;;;;;;;0.50;0.50;;;8.70;99.90;;;;;;4988609;28;20034;-71
2022/03/04 08:37:52;;;;;;;0.00;0.00;;;8.80;99.90;;;;;;4988008;28;20112;-70
2022/03/04 08:40:18;;;;;;;0.22;0.22;;;8.90;99.90;;;;;;4984404;28;20026;-70
2022/03/04 08:42:44;;;;;;;2.58;0.40;;;8.90;99.90;;;;;;4992855;28;20054;-70
2022/03/04 08:45:11;;;;;;;5.32;1.10;;;9.00;99.90;;;;;;4991662;28;20050;-71
2022/03/04 08:47:38;;;;;;;0.75;0.55;;;9.10;99.90;;;;;;4979111;28;20113;-71
2022/03/04 08:50:05;;;;;;;15.38;0.60;;;9.20;99.90;;;;;;4985268;28;20030;-70
2022/03/04 08:52:31;;;;;;;1.05;0.95;;;9.20;99.90;;;;;;4992519;28;20038;-71
2022/03/04 08:54:57;;;;;;;1.17;0.90;;;9.20;99.90;;;;;;4984601;28;20446;-71
2022/03/04 08:57:23;;;;;;;0.00;0.00;;;9.20;99.90;;;;;;4980970;28;20034;-71
2022/03/04 08:59:49;;;;;;;2.53;1.55;;;9.20;99.90;;;;;;4989830;28;20084;-70
2022/03/04 09:02:14;;;;;;;0.00;0.00;;;9.30;99.90;;;;;;4989912;28;20113;-71
2022/03/04 09:04:40;;;;;;;0.13;0.13;;;9.40;99.90;;;;;;4991733;28;20037;-70
2022/03/04 09:07:06;;;;;;;1.02;0.45;;;9.40;99.90;;;;;;4988050;28;20037;-71
2022/03/04 09:09:33;;;;;;;0.32;0.28;;;9.40;99.90;;;;;;4992707;28;20026;-70
2022/03/04 09:11:59;;;;;;;0.15;0.15;;;9.50;99.90;;;;;;4993482;28;20018;-70
2022/03/04 09:14:25;;;;;;;1.42;0.95;;;9.60;99.90;;;;;;4993507;28;20069;-70
2022/03/04 09:16:51;;;;;;;0.30;0.30;;;9.70;99.90;;;;;;4992773;28;20058;-70
2022/03/04 09:19:17;;;;;;;4.03;2.25;;;9.70;99.90;;;;;;4990587;28;20041;-71
2022/03/04 09:21:43;;;;;;;0.35;0.35;;;9.80;99.90;;;;;;4993145;28;20084;-70
2022/03/04 09:24:09;;;;;;;0.57;0.30;;;9.90;99.90;;;;;;4992483;28;20030;-71
2022/03/04 09:26:35;;;;;;;0.85;0.85;;;10.00;99.90;;;;;;4992838;28;20417;-71
2022/03/04 09:29:00;;;;;;;0.20;0.20;;;10.10;99.90;;;;;;4991574;28;20030;-72
2022/03/04 09:31:26;;;;;;;0.00;0.00;;;10.30;99.90;;;;;;4990650;28;20400;-71
2022/03/04 09:33:53;;;;;;;11.77;0.55;;;10.30;99.90;;;;;;4991752;28;20029;-71
2022/03/04 09:36:18;;;;;;;0.38;0.38;;;10.30;99.90;;;;;;4992224;28;20054;-71
2022/03/04 09:38:44;;;;;;;5.78;1.02;;;10.40;99.90;;;;;;4991471;28;20046;-72
2022/03/04 09:41:10;;;;;;;0.38;0.38;;;10.30;99.90;;;;;;4991622;28;20180;-71
2022/03/04 09:43:38;;;;;;;0.28;0.28;;;10.30;99.90;;;;;;4991663;28;20045;-71
2022/03/04 09:46:04;;;;;;;0.00;0.00;;;10.40;99.90;;;;;;4992385;28;20022;-72
2022/03/04 09:48:30;;;;;;;0.52;0.52;;;10.50;99.90;;;;;;4991210;28;20034;-71
2022/03/04 09:50:56;;;;;;;0.13;0.13;;;10.40;99.90;;;;;;4991253;28;20557;-71
2022/03/04 09:53:21;;;;;;;0.00;0.00;;;10.60;99.90;;;;;;4992007;28;20054;-71
2022/03/04 09:55:47;;;;;;;0.10;0.10;;;10.50;99.90;;;;;;4992449;28;20026;-71
2022/03/04 09:58:15;;;;;;;0.00;0.00;;;10.50;99.90;;;;;;4993981;28;20034;-72
2022/03/04 10:00:42;;;;;;;1.20;0.85;;;10.50;99.90;;;;;;4991242;28;20040;-72
2022/03/04 10:03:22;;;;;;;0.17;0.17;;;10.60;99.90;;;;;;4991697;28;20113;-72
2022/03/04 10:05:55;;;;;;;1.40;1.25;;;10.60;99.90;;;;;;4986828;28;20497;-71
2022/03/04 10:08:21;;;;;;;;;;;10.70;99.90;;;;;;4990699;28;20108;-71
2022/03/04 10:10:51;;;;;;;0.00;0.00;;;10.80;99.90;;;;;;4991975;28;20340;-72
2022/03/04 10:13:17;;;;;;;0.43;0.43;;;10.90;99.90;;;;;;4988889;28;20409;-71
2022/03/04 10:15:55;;;;;;;9.95;2.78;;;10.80;99.90;;;;;;4989492;28;20030;-73
2022/03/04 10:18:28;;;;;;;0.25;0.20;;;10.80;99.90;;;;;;4990190;28;20018;-73
2022/03/04 10:20:55;;;;;;;0.40;0.35;;;10.80;99.90;;;;;;4998629;28;20030;-73
2022/03/04 10:23:23;;;;;;;0.17;0.17;;;10.90;99.90;;;;;;4993395;28;20030;-72
2022/03/04 10:25:54;;;;;;;0.75;0.75;;;10.80;99.90;;;;;;4991918;28;20035;-73
2022/03/04 10:28:25;;;;;;;0.60;0.60;;;11.00;99.90;;;;;;4991866;28;20125;-73
2022/03/04 10:30:55;;;;;;;0.65;0.65;;;11.10;99.90;;;;;;4993746;28;20041;-73
2022/03/04 10:33:29;;;;;;;0.20;0.20;;;11.30;99.90;;;;;;4981562;28;20084;-71
2022/03/04 10:36:14;;;;;;;0.50;0.32;;;11.20;99.90;;;;;;4994463;28;20042;-72
2022/03/04 10:38:43;;;;;;;0.55;0.55;;;11.20;99.90;;;;;;4990755;28;20011;-72
2022/03/04 10:41:26;;;;;;;1.23;0.52;;;11.40;99.90;;;;;;4986830;28;20049;-72
2022/03/04 10:43:56;;;;;;;8.10;2.13;;;11.20;99.90;;;;;;4991124;28;20524;-72
2022/03/04 10:46:22;;;;;;;0.10;0.10;;;11.40;99.90;;;;;;4991835;28;20022;-72
2022/03/04 10:48:56;;;;;;;1.08;0.20;;;11.50;99.90;;;;;;4989237;28;21046;-71
2022/03/04 10:51:39;;;;;;;0.00;0.00;;;11.30;99.90;;;;;;4991275;28;20034;-71
2022/03/04 10:54:15;;;;;;;0.08;0.08;;;11.40;99.90;;;;;;4988357;28;20022;-70
2022/03/04 10:56:55;;;;;;;0.30;0.30;;;11.30;99.90;;;;;;4989968;28;20134;-71
2022/03/04 10:59:22;;;;;;;0.00;0.00;;;11.40;99.90;;;;;;4990846;28;20051;-71
2022/03/04 11:01:49;;;;;;;0.10;0.10;;;11.40;99.90;;;;;;4990649;28;20041;-71
2022/03/04 11:04:19;;;;;;;0.00;0.00;;;11.40;99.90;;;;;;4989068;28;20038;-71
2022/03/04 11:06:46;;;;;;;0.10;0.10;;;11.40;99.90;;;;;;4985728;28;20358;-72
2022/03/04 11:09:17;;;;;;;0.45;0.40;;;11.60;99.90;;;;;;4990432;28;20037;-73
2022/03/04 11:11:44;;;;;;;0.45;0.40;;;11.70;99.90;;;;;;4990995;28;20042;-71
2022/03/04 11:14:13;;;;;;;0.38;0.17;;;11.60;99.90;;;;;;4990881;28;20413;-72
2022/03/04 11:16:41;;;;;;;0.17;0.17;;;11.60;99.90;;;;;;4987855;28;20085;-73
2022/03/04 11:19:07;;;;;;;1.30;1.02;;;11.50;99.90;;;;;;4991341;28;20058;-72
2022/03/04 11:21:33;;;;;;;1.77;0.17;;;11.30;99.90;;;;;;4987322;28;20034;-72
2022/03/04 11:24:00;;;;;;;0.00;0.00;;;11.50;99.90;;;;;;4979162;28;20109;-73
2022/03/04 11:26:29;;;;;;;0.25;0.25;;;11.70;99.90;;;;;;4989403;28;20114;-72
2022/03/04 11:28:56;;;;;;;0.05;0.05;;;11.90;99.90;;;;;;4983328;28;20041;-72
2022/03/04 11:31:25;;;;;;;0.00;0.00;;;12.00;99.90;;;;;;4988271;28;20031;-73
2022/03/04 11:34:02;;;;;;;0.10;0.10;;;12.00;99.90;;;;;;4991068;28;20030;-72
2022/03/04 11:36:33;;;;;;;0.08;0.08;;;12.20;99.90;;;;;;4991468;28;20030;-73
2022/03/04 11:39:12;;;;;;;0.77;0.30;;;12.50;99.90;;;;;;4990137;28;20133;-73
2022/03/04 11:41:59;;;;;;;0.00;0.00;;;12.50;99.90;;;;;;4989872;28;20113;-72
2022/03/04 11:44:25;;;;;;;6.78;0.65;;;12.50;99.90;;;;;;4986453;28;20045;-73
2022/03/04 11:47:01;;;;;;;0.00;0.00;;;12.50;99.90;;;;;;4991290;28;20015;-72
2022/03/04 11:49:48;;;;;;;0.75;0.75;;;12.40;99.90;;;;;;4990670;28;20014;-72
2022/03/04 11:52:29;;;;;;;0.00;0.00;;;12.20;99.90;;;;;;4973123;28;20037;-72
2022/03/04 11:54:58;;;;;;;1.60;0.50;;;12.10;99.90;;;;;;4990172;28;20030;-72
2022/03/04 11:57:29;;;;;;;2.95;0.68;;;11.90;99.90;;;;;;5007452;28;20069;-72
2022/03/04 11:59:56;;;;;;;1.20;0.63;;;11.80;99.90;;;;;;4993037;28;20034;-72
2022/03/04 12:02:26;;;;;;;0.40;0.40;;;12.00;99.90;;;;;;4993489;28;20061;-73
2022/03/04 12:05:28;;;;;;;0.55;0.55;;;12.10;99.90;;;;;;4994871;28;20022;-72
2022/03/04 12:07:54;;;;;;;2.25;1.00;;;12.40;99.90;;;;;;4986476;28;20124;-72
2022/03/04 12:10:24;;;;;;;1.45;0.88;;;12.50;99.90;;;;;;4989764;28;20497;-73
2022/03/04 12:13:01;;;;;;;0.00;0.00;;;12.40;99.90;;;;;;4991526;28;20030;-73
2022/03/04 12:15:44;;;;;;;0.03;0.03;;;12.40;99.90;;;;;;4991058;28;20034;-72
2022/03/04 12:18:29;;;;;;;2.70;1.47;;;12.40;99.90;;;;;;4991857;28;20030;-72
2022/03/04 12:20:58;;;;;;;1.85;0.20;;;12.40;99.90;;;;;;4989597;28;20037;-73
2022/03/04 12:23:39;;;;;;;0.00;0.00;;;12.30;99.90;;;;;;4991354;28;20027;-72
2022/03/04 12:26:06;;;;;;;0.28;0.28;;;12.30;99.90;;;;;;4988821;28;20079;-72
2022/03/04 12:28:39;;;;;;;0.20;0.20;;;11.90;99.90;;;;;;4990152;28;20490;-71
2022/03/04 12:31:05;;;;;;;0.10;0.10;;;11.90;99.90;;;;;;4991877;28;20093;-71
2022/03/04 12:33:34;;;;;;;0.10;0.10;;;12.00;99.90;;;;;;4991411;28;20026;-72
2022/03/04 12:36:03;;;;;;;0.03;0.03;;;12.00;99.90;;;;;;4984155;28;20044;-72
2022/03/04 12:38:36;;;;;;;0.03;0.03;;;12.00;99.90;;;;;;4992841;28;20014;-72
2022/03/04 12:41:02;;;;;;;0.10;0.10;;;11.90;99.90;;;;;;4988096;28;20034;-72
2022/03/04 12:43:28;;;;;;;0.25;0.17;;;12.10;99.90;;;;;;4993136;28;20026;-70
2022/03/04 12:45:54;;;;;;;1.13;0.93;;;12.40;99.90;;;;;;4982527;28;20069;-71
2022/03/04 12:48:20;;;;;;;0.10;0.10;;;12.70;99.90;;;;;;4993468;28;20014;-72
2022/03/04 12:50:46;;;;;;;2.40;1.25;;;13.00;99.90;;;;;;4993058;28;20052;-74
2022/03/04 12:53:23;;;;;;;0.10;0.10;;;13.10;99.90;;;;;;4993233;28;20449;-72
2022/03/04 12:55:50;;;;;;;11.13;0.73;;;13.00;99.90;;;;;;4993118;28;20026;-72